createdAt,value
2022-09-05T00:00:12.888Z,72.65
2022-09-05T00:01:31.934Z,73.29
2022-09-05T00:02:34.216Z,73.23
2022-09-05T00:04:24.472Z,72.50
2022-09-05T00:06:02.397Z,72.22
2022-09-05T00:07:11.789Z,72.78
2022-09-05T00:08:40.084Z,72.60
2022-09-05T00:10:11.449Z,71.95
2022-09-05T00:11:40.868Z,72.77
2022-09-05T00:12:46.478Z,73.89
2022-09-05T00:14:15.006Z,73.52
2022-09-05T00:15:44.705Z,74.27
2022-09-05T00:16:56.426Z,74.02
2022-09-05T00:23:03.770Z,74.88
2022-09-05T00:24:23.214Z,74.45
2022-09-05T00:24:26.686Z,73.62
2022-09-05T00:24:31.786Z,74.40
2022-09-05T00:24:42.666Z,73.56
2022-09-05T00:26:17.202Z,73.06
2022-09-05T00:27:36.454Z,73.89
2022-09-05T00:28:41.712Z,74.30
2022-09-05T00:31:07.504Z,74.64
2022-09-05T00:31:57.416Z,73.37
2022-09-05T00:33:20.947Z,74.17
2022-09-05T00:34:37.765Z,73.93
2022-09-05T00:36:19.182Z,73.75
2022-09-05T00:37:35.360Z,74.90
2022-09-05T00:38:41.503Z,74.46
2022-09-05T00:39:47.904Z,74.73
2022-09-05T00:41:13.396Z,74.84
2022-09-05T00:42:21.397Z,74.70
2022-09-05T00:43:28.298Z,73.92
2022-09-05T00:44:33.102Z,75.12
2022-09-05T00:45:37.613Z,74.02
2022-09-05T00:46:44.738Z,74.04
2022-09-05T00:48:03.664Z,74.67
2022-09-05T00:49:21.399Z,73.76
2022-09-05T00:50:32.263Z,74.04
2022-09-05T00:51:43.659Z,73.71
2022-09-05T00:53:07.563Z,73.35
2022-09-05T00:54:41.756Z,73.02
2022-09-05T00:56:12.047Z,74.55
2022-09-05T00:57:39.759Z,73.88
2022-09-05T00:59:15.564Z,72.72
2022-09-05T01:00:21.281Z,73.38
2022-09-05T01:01:26.536Z,74.33
2022-09-05T01:02:32.119Z,73.82
2022-09-05T01:04:19.696Z,72.97
2022-09-05T01:05:33.693Z,73.37
2022-09-05T01:07:06.937Z,73.46
2022-09-05T01:08:27.784Z,73.02
2022-09-05T01:09:50.905Z,72.81
2022-09-05T01:11:28.194Z,71.94
2022-09-05T01:12:56.838Z,72.42
2022-09-05T01:14:10.678Z,72.94
2022-09-05T01:15:42.160Z,73.11
2022-09-05T01:17:19.093Z,72.44
2022-09-05T01:18:30.875Z,72.21
2022-09-05T01:19:46.292Z,73.46
2022-09-05T01:21:19.617Z,73.87
2022-09-05T01:22:39.212Z,73.78
2022-09-05T01:23:54.553Z,73.71
2022-09-05T01:25:02.479Z,73.40
2022-09-05T01:26:29.097Z,72.90
2022-09-05T01:29:13.716Z,72.68
2022-09-05T01:30:18.624Z,72.36
2022-09-05T01:31:37.222Z,73.10
2022-09-05T01:33:17.791Z,73.06
2022-09-05T01:34:33.695Z,72.57
2022-09-05T01:36:04.490Z,72.10
2022-09-05T01:37:33.131Z,72.28
2022-09-05T01:38:57.996Z,72.94
2022-09-05T01:40:39.214Z,72.96
2022-09-05T01:42:12.516Z,72.85
2022-09-05T01:43:31.102Z,73.11
2022-09-05T01:44:57.544Z,73.23
2022-09-05T01:46:17.829Z,72.91
2022-09-05T01:47:45.042Z,73.27
2022-09-05T01:49:08.905Z,73.41
2022-09-05T01:50:36.153Z,72.38
2022-09-05T01:51:50.025Z,73.03
2022-09-05T01:53:29.721Z,72.09
2022-09-05T01:54:56.714Z,72.11
2022-09-05T01:56:32.338Z,72.61
2022-09-05T01:57:55.584Z,72.22
2022-09-05T01:59:16.295Z,73.40
2022-09-05T02:00:40.038Z,72.64
2022-09-05T02:01:57.573Z,72.58
2022-09-05T02:03:17.753Z,72.68
2022-09-05T02:04:30.473Z,72.10
2022-09-05T02:05:47.537Z,72.07
2022-09-05T02:07:31.122Z,72.52
2022-09-05T02:08:52.369Z,72.57
2022-09-05T02:10:32.929Z,73.45
2022-09-05T02:12:05.920Z,72.52
2022-09-05T02:13:35.980Z,72.12
2022-09-05T02:14:45.816Z,72.51
2022-09-05T02:15:59.820Z,72.78
2022-09-05T02:17:49.742Z,73.06
2022-09-05T02:19:09.503Z,73.17
2022-09-05T02:20:24.401Z,72.93
2022-09-05T02:21:29.494Z,73.23
2022-09-05T02:22:43.796Z,73.69
2022-09-05T02:24:03.340Z,73.04
2022-09-05T02:26:00.534Z,72.99
2022-09-05T02:26:51.895Z,73.50
2022-09-05T02:28:06.292Z,73.13
2022-09-05T02:29:28.929Z,73.38
2022-09-05T02:30:50.366Z,73.75
2022-09-05T02:32:18.331Z,73.37
2022-09-05T02:33:30.846Z,74.76
2022-09-05T02:35:07.483Z,73.94
2022-09-05T02:36:23.942Z,74.50
2022-09-05T02:38:54.390Z,73.83
2022-09-05T02:42:57.765Z,73.98
2022-09-05T02:45:06.971Z,73.57
2022-09-05T02:45:20.203Z,74.46
2022-09-05T02:45:20.664Z,73.63
2022-09-05T02:45:27.818Z,73.68
2022-09-05T02:46:49.391Z,74.80
2022-09-05T02:47:59.077Z,74.64
2022-09-05T02:50:00.188Z,73.79
2022-09-05T02:53:52.074Z,74.08
2022-09-05T02:56:42.507Z,74.72
2022-09-05T02:57:32.759Z,75.00
2022-09-05T02:57:34.739Z,74.82
2022-09-05T02:57:35.594Z,74.18
2022-09-05T02:58:15.002Z,74.65
2022-09-05T02:59:45.506Z,74.82
2022-09-05T03:01:11.732Z,73.74
2022-09-05T03:02:26.442Z,74.33
2022-09-05T03:03:39.259Z,74.28
2022-09-05T03:04:51.094Z,74.22
2022-09-05T03:06:34.562Z,74.56
2022-09-05T03:07:54.880Z,74.63
2022-09-05T03:09:19.772Z,74.98
2022-09-05T03:10:54.155Z,75.14
2022-09-05T03:12:34.484Z,73.93
2022-09-05T03:14:04.405Z,74.62
2022-09-05T03:15:44.277Z,74.10
2022-09-05T03:17:23.804Z,74.58
2022-09-05T03:19:06.908Z,74.11
2022-09-05T03:21:09.145Z,74.98
2022-09-05T03:22:47.601Z,74.22
2022-09-05T03:24:08.894Z,74.90
2022-09-05T03:25:36.133Z,74.85
2022-09-05T03:27:32.000Z,74.44
2022-09-05T03:29:02.003Z,74.96
2022-09-05T03:30:08.813Z,75.34
2022-09-05T03:31:30.111Z,75.59
2022-09-05T03:32:50.850Z,76.29
2022-09-05T03:33:58.799Z,76.02
2022-09-05T03:35:33.265Z,75.21
2022-09-05T03:36:47.604Z,75.38
2022-09-05T03:38:10.106Z,76.27
2022-09-05T03:40:17.062Z,75.77
2022-09-05T03:41:39.994Z,75.75
2022-09-05T03:43:03.887Z,75.39
2022-09-05T03:44:31.661Z,75.70
2022-09-05T03:45:54.053Z,75.52
2022-09-05T03:47:21.982Z,75.61
2022-09-05T03:48:30.274Z,75.59
2022-09-05T03:52:34.180Z,75.71
2022-09-05T03:57:10.525Z,75.83
2022-09-05T03:57:12.923Z,75.36
2022-09-05T03:57:15.201Z,75.30
2022-09-05T03:57:15.713Z,76.14
2022-09-05T03:57:56.255Z,75.72
2022-09-05T03:59:43.305Z,75.31
2022-09-05T04:01:17.537Z,75.65
2022-09-05T04:07:03.604Z,76.17
2022-09-05T04:08:10.906Z,76.25
2022-09-05T04:08:17.422Z,75.84
2022-09-05T04:08:19.557Z,76.01
2022-09-05T04:08:58.387Z,76.09
2022-09-05T04:10:29.117Z,76.77
2022-09-05T04:11:48.187Z,76.58
2022-09-05T04:12:55.264Z,75.78
2022-09-05T04:14:26.632Z,76.14
2022-09-05T04:16:05.169Z,75.55
2022-09-05T04:17:17.131Z,76.69
2022-09-05T04:18:32.935Z,76.84
2022-09-05T04:19:49.975Z,77.25
2022-09-05T04:21:12.009Z,76.78
2022-09-05T04:22:48.438Z,76.43
2022-09-05T04:24:09.909Z,76.53
2022-09-05T04:25:42.915Z,76.96
2022-09-05T04:26:47.838Z,77.42
2022-09-05T04:28:20.889Z,77.47
2022-09-05T04:29:35.496Z,77.01
2022-09-05T04:30:49.122Z,77.46
2022-09-05T04:32:19.651Z,77.75
2022-09-05T04:33:36.605Z,78.07
2022-09-05T04:34:45.434Z,78.43
2022-09-05T04:36:17.892Z,78.36
2022-09-05T04:37:47.691Z,78.65
2022-09-05T04:39:05.543Z,78.07
2022-09-05T04:40:35.419Z,77.59
2022-09-05T04:41:45.846Z,78.72
2022-09-05T04:42:49.672Z,78.35
2022-09-05T04:43:53.361Z,78.63
2022-09-05T04:45:11.583Z,78.63
2022-09-05T04:46:20.859Z,78.56
2022-09-05T04:47:38.910Z,78.38
2022-09-05T04:49:13.381Z,79.30
2022-09-05T04:50:24.197Z,79.34
2022-09-05T04:52:00.158Z,79.93
2022-09-05T04:53:33.264Z,78.88
2022-09-05T04:54:52.255Z,78.55
2022-09-05T04:55:57.875Z,78.75
2022-09-05T04:57:14.335Z,78.79
2022-09-05T05:00:54.284Z,78.58
2022-09-05T05:05:59.562Z,78.89
2022-09-05T05:06:02.225Z,79.35
2022-09-05T05:06:12.921Z,79.24
2022-09-05T05:06:16.112Z,79.18
2022-09-05T05:06:38.389Z,78.21
2022-09-05T05:07:51.220Z,78.56
2022-09-05T05:09:05.241Z,78.84
2022-09-05T05:12:56.952Z,78.34
2022-09-05T05:17:57.610Z,79.02
2022-09-05T05:18:01.161Z,78.55
2022-09-05T05:18:07.222Z,78.21
2022-09-05T05:18:13.565Z,79.12
2022-09-05T05:18:53.284Z,78.30
2022-09-05T05:20:42.882Z,77.28
2022-09-05T05:21:48.474Z,77.73
2022-09-05T05:23:12.924Z,77.31
2022-09-05T05:24:22.205Z,78.20
2022-09-05T05:25:26.377Z,77.62
2022-09-05T05:26:36.141Z,78.32
2022-09-05T05:27:46.521Z,78.07
2022-09-05T05:28:54.464Z,77.08
2022-09-05T05:30:08.717Z,77.47
2022-09-05T05:31:18.825Z,78.08
2022-09-05T05:32:44.931Z,77.60
2022-09-05T05:33:51.783Z,77.70
2022-09-05T05:35:23.479Z,77.17
2022-09-05T05:36:40.613Z,75.83
2022-09-05T05:37:50.455Z,76.63
2022-09-05T05:38:56.631Z,76.23
2022-09-05T05:40:02.903Z,76.33
2022-09-05T05:41:16.203Z,77.09
2022-09-05T05:42:25.615Z,77.29
2022-09-05T05:43:37.986Z,76.30
2022-09-05T05:44:40.229Z,75.77
2022-09-05T05:45:44.296Z,75.75
2022-09-05T05:46:58.362Z,76.49
2022-09-05T05:48:06.729Z,74.83
2022-09-05T05:49:31.947Z,74.63
2022-09-05T05:51:03.180Z,74.16
2022-09-05T05:52:05.373Z,73.02
2022-09-05T05:53:43.920Z,74.32
2022-09-05T05:55:11.276Z,72.90
2022-09-05T05:56:28.685Z,73.34
2022-09-05T05:57:45.994Z,72.90
2022-09-05T05:59:09.453Z,71.81
2022-09-05T06:00:51.902Z,71.37
2022-09-05T06:02:12.372Z,72.67
2022-09-05T06:03:27.651Z,72.89
2022-09-05T06:05:14.928Z,72.17
2022-09-05T06:06:38.792Z,71.54
2022-09-05T06:09:28.342Z,71.76
2022-09-05T06:14:52.328Z,71.98
2022-09-05T06:14:55.799Z,71.59
2022-09-05T06:14:56.701Z,71.92
2022-09-05T06:15:21.295Z,71.44
2022-09-05T06:17:19.979Z,71.21
2022-09-05T06:18:50.359Z,72.18
2022-09-05T06:22:04.441Z,71.30
2022-09-05T06:22:26.507Z,71.24
2022-09-05T06:23:39.349Z,71.96
2022-09-05T06:25:11.081Z,71.85
2022-09-05T06:26:53.636Z,71.19
2022-09-05T06:28:18.649Z,70.70
2022-09-05T06:29:38.653Z,71.32
2022-09-05T06:31:27.608Z,71.63
2022-09-05T06:32:49.243Z,70.45
2022-09-05T06:34:33.573Z,70.90
2022-09-05T06:36:04.652Z,70.83
2022-09-05T06:37:38.035Z,71.31
2022-09-05T06:38:58.410Z,70.85
2022-09-05T06:40:00.707Z,70.89
2022-09-05T06:41:31.740Z,70.28
2022-09-05T06:42:52.093Z,70.48
2022-09-05T06:44:37.625Z,69.57
2022-09-05T06:45:59.208Z,69.73
2022-09-05T06:47:24.356Z,69.39
2022-09-05T06:49:29.811Z,68.86
2022-09-05T06:50:48.187Z,68.76
2022-09-05T06:52:36.095Z,68.47
2022-09-05T06:54:06.051Z,68.98
2022-09-05T06:55:41.812Z,68.39
2022-09-05T06:57:30.729Z,68.49
2022-09-05T06:59:10.295Z,68.78
2022-09-05T07:00:47.838Z,68.63
2022-09-05T07:02:00.367Z,68.57
2022-09-05T07:03:40.462Z,68.34
2022-09-05T07:05:23.619Z,68.58
2022-09-05T07:06:49.411Z,67.86
2022-09-05T07:08:18.440Z,69.00
2022-09-05T07:09:52.129Z,69.27
2022-09-05T07:11:16.743Z,68.56
2022-09-05T07:12:30.244Z,68.29
2022-09-05T07:13:45.610Z,67.21
2022-09-05T07:14:53.470Z,66.65
2022-09-05T07:16:26.673Z,65.25
2022-09-05T07:18:08.584Z,66.31
2022-09-05T07:19:29.243Z,64.73
2022-09-05T07:21:16.257Z,63.12
2022-09-05T07:22:48.434Z,60.65
2022-09-05T07:24:10.470Z,58.80
2022-09-05T07:25:18.720Z,56.06
2022-09-05T07:26:49.689Z,54.79
2022-09-05T07:28:26.476Z,52.17
2022-09-05T07:29:24.285Z,51.28
2022-09-05T07:30:26.962Z,50.00
2022-09-05T07:31:38.062Z,49.44
2022-09-05T07:32:45.638Z,48.69
2022-09-05T07:33:48.336Z,47.21
2022-09-05T07:34:52.846Z,46.87
2022-09-05T07:36:03.374Z,45.43
2022-09-05T07:37:22.591Z,45.90
2022-09-05T07:38:49.058Z,46.99
2022-09-05T07:39:53.974Z,48.75
2022-09-05T07:41:08.357Z,50.10
2022-09-05T07:42:26.418Z,50.36
2022-09-05T07:43:39.391Z,50.76
2022-09-05T07:44:56.851Z,47.77
2022-09-05T07:45:59.035Z,47.87
2022-09-05T07:47:14.718Z,47.46
2022-09-05T07:48:34.376Z,46.53
2022-09-05T07:49:50.544Z,46.48
2022-09-05T07:55:10.986Z,46.94
2022-09-05T07:56:52.992Z,44.78
2022-09-05T07:56:55.497Z,46.85
2022-09-05T07:57:16.008Z,45.73
2022-09-05T07:58:52.847Z,42.29
2022-09-05T08:00:26.896Z,42.53
2022-09-05T08:01:32.933Z,42.72
2022-09-05T08:02:47.045Z,43.30
2022-09-05T08:04:00.379Z,42.84
2022-09-05T08:05:08.562Z,43.58
2022-09-05T08:06:55.790Z,43.79
2022-09-05T08:07:52.799Z,43.89
2022-09-05T08:09:21.461Z,42.98
2022-09-05T08:10:35.642Z,42.55
2022-09-05T08:12:09.617Z,41.12
2022-09-05T08:13:24.457Z,41.39
2022-09-05T08:15:03.891Z,42.42
2022-09-05T08:16:13.137Z,43.06
2022-09-05T08:17:20.441Z,42.44
2022-09-05T08:18:51.617Z,41.43
2022-09-05T08:20:15.087Z,39.99
2022-09-05T08:21:27.329Z,40.11
2022-09-05T08:22:54.865Z,41.19
2022-09-05T08:24:13.634Z,40.87
2022-09-05T08:25:27.487Z,40.11
2022-09-05T08:27:03.074Z,39.88
2022-09-05T08:28:20.371Z,40.29
2022-09-05T08:29:31.894Z,39.91
2022-09-05T08:30:44.062Z,40.96
2022-09-05T08:31:52.626Z,40.20
2022-09-05T08:33:11.414Z,39.42
2022-09-05T08:34:31.482Z,37.87
2022-09-05T08:36:01.266Z,37.57
2022-09-05T08:37:05.247Z,37.03
2022-09-05T08:38:08.864Z,36.77
2022-09-05T08:39:12.709Z,37.13
2022-09-05T08:40:20.844Z,36.72
2022-09-05T08:41:50.250Z,37.65
2022-09-05T08:43:53.179Z,38.81
2022-09-05T08:46:35.742Z,39.13
2022-09-05T08:46:49.845Z,39.06
2022-09-05T08:48:09.447Z,38.83
2022-09-05T08:49:46.896Z,38.42
2022-09-05T08:51:05.139Z,37.76
2022-09-05T08:52:33.677Z,36.58
2022-09-05T08:53:46.665Z,36.59
2022-09-05T08:55:08.932Z,35.94
2022-09-05T08:56:49.404Z,36.76
2022-09-05T08:58:07.942Z,37.24
2022-09-05T08:59:36.013Z,37.29
2022-09-05T09:00:50.633Z,37.00
2022-09-05T09:02:46.729Z,35.47
2022-09-05T09:04:11.400Z,35.21
2022-09-05T09:06:12.483Z,35.03
2022-09-05T09:07:51.746Z,35.02
2022-09-05T09:08:57.151Z,33.32
2022-09-05T09:10:34.919Z,34.20
2022-09-05T09:11:52.280Z,34.03
2022-09-05T09:13:30.474Z,34.36
2022-09-05T09:14:44.586Z,34.01
2022-09-05T09:16:04.674Z,33.66
2022-09-05T09:17:19.024Z,33.18
2022-09-05T09:18:34.109Z,33.11
2022-09-05T09:20:10.030Z,32.75
2022-09-05T09:21:35.470Z,31.71
2022-09-05T09:23:02.833Z,31.34
2022-09-05T09:24:38.365Z,30.93
2022-09-05T09:25:43.467Z,30.75
2022-09-05T09:26:58.749Z,30.96
2022-09-05T09:28:49.556Z,31.04
2022-09-05T09:30:01.401Z,31.50
2022-09-05T09:31:37.526Z,29.88
2022-09-05T09:32:49.054Z,30.57
2022-09-05T09:34:09.227Z,29.55
2022-09-05T09:35:24.003Z,29.59
2022-09-05T09:36:46.406Z,29.04
2022-09-05T09:38:02.461Z,28.53
2022-09-05T09:39:37.720Z,28.69
2022-09-05T09:40:36.059Z,28.25
2022-09-05T09:41:56.585Z,29.05
2022-09-05T09:43:20.470Z,29.60
2022-09-05T09:44:55.359Z,30.29
2022-09-05T09:46:00.260Z,31.27
2022-09-05T09:47:12.898Z,30.89
2022-09-05T09:48:52.823Z,30.66
2022-09-05T09:50:17.839Z,30.82
2022-09-05T09:51:54.604Z,31.70
2022-09-05T09:53:14.941Z,32.54
2022-09-05T09:54:29.057Z,31.74
2022-09-05T09:55:52.866Z,31.31
2022-09-05T09:57:14.543Z,31.82
2022-09-05T09:58:31.250Z,31.33
2022-09-05T10:00:13.450Z,30.35
2022-09-05T10:01:53.259Z,30.27
2022-09-05T10:10:09.984Z,30.24
2022-09-05T10:10:39.862Z,30.15
2022-09-05T10:10:45.885Z,29.35
2022-09-05T10:10:54.213Z,28.79
2022-09-05T10:11:09.183Z,28.76
2022-09-05T10:11:55.636Z,27.92
2022-09-05T10:13:17.299Z,28.15
2022-09-05T10:14:49.658Z,26.59
2022-09-05T10:16:27.136Z,26.35
2022-09-05T10:17:38.753Z,27.31
2022-09-05T10:18:57.630Z,26.53
2022-09-05T10:20:23.235Z,26.14
2022-09-05T10:21:28.242Z,26.14
2022-09-05T10:22:48.930Z,25.40
2022-09-05T10:24:15.408Z,25.95
2022-09-05T10:25:48.559Z,25.79
2022-09-05T10:27:15.502Z,27.06
2022-09-05T10:28:55.945Z,26.84
2022-09-05T10:33:03.812Z,26.97
2022-09-05T10:35:09.783Z,28.22
2022-09-05T10:35:12.999Z,29.20
2022-09-05T10:35:23.696Z,30.07
2022-09-05T10:36:31.643Z,30.87
2022-09-05T10:37:43.559Z,31.07
2022-09-05T10:38:52.737Z,31.18
2022-09-05T10:39:58.157Z,31.56
2022-09-05T10:41:22.173Z,31.29
2022-09-05T10:42:35.143Z,30.92
2022-09-05T10:44:04.502Z,30.70
2022-09-05T10:45:38.046Z,30.79
2022-09-05T10:46:52.082Z,31.10
2022-09-05T10:48:19.678Z,30.65
2022-09-05T10:49:27.026Z,31.46
2022-09-05T10:50:36.521Z,31.17
2022-09-05T10:51:51.970Z,31.03
2022-09-05T10:53:00.372Z,30.26
2022-09-05T10:54:24.518Z,30.68
2022-09-05T10:55:41.684Z,30.35
2022-09-05T10:56:51.937Z,30.59
2022-09-05T11:02:18.608Z,30.17
2022-09-05T11:02:23.405Z,30.41
2022-09-05T11:02:34.869Z,31.34
2022-09-05T11:03:56.851Z,31.08
2022-09-05T11:05:08.225Z,30.45
2022-09-05T11:06:20.955Z,31.11
2022-09-05T11:07:42.633Z,30.84
2022-09-05T11:08:47.829Z,31.97
2022-09-05T11:10:02.791Z,30.58
2022-09-05T11:11:11.255Z,31.35
2022-09-05T11:13:05.847Z,32.32
2022-09-05T11:14:28.623Z,33.04
2022-09-05T11:16:10.313Z,32.18
2022-09-05T11:17:49.153Z,32.18
2022-09-05T11:19:00.681Z,31.48
2022-09-05T11:20:39.799Z,30.50
2022-09-05T11:22:19.890Z,31.25
2022-09-05T11:23:35.513Z,30.96
2022-09-05T11:24:43.737Z,31.33
2022-09-05T11:25:47.765Z,31.28
2022-09-05T11:27:24.914Z,31.54
2022-09-05T11:28:57.544Z,31.29
2022-09-05T11:30:08.042Z,31.31
2022-09-05T11:31:18.393Z,30.81
2022-09-05T11:39:47.121Z,30.01
2022-09-05T11:39:53.152Z,30.15
2022-09-05T11:39:53.715Z,28.42
2022-09-05T11:39:59.643Z,30.62
2022-09-05T11:40:06.567Z,27.95
2022-09-05T11:41:29.649Z,28.03
2022-09-05T11:43:06.929Z,28.17
2022-09-05T11:44:26.004Z,27.42
2022-09-05T11:45:38.046Z,26.77
2022-09-05T11:47:30.092Z,28.13
2022-09-05T11:48:53.356Z,27.47
2022-09-05T11:49:55.856Z,28.77
2022-09-05T11:51:19.658Z,28.16
2022-09-05T11:52:44.689Z,28.37
2022-09-05T11:54:08.431Z,29.31
2022-09-05T11:55:23.853Z,29.19
2022-09-05T11:56:28.855Z,29.13
2022-09-05T11:57:34.236Z,29.23
2022-09-05T11:59:05.245Z,28.82
2022-09-05T12:00:31.154Z,29.42
2022-09-05T12:02:23.321Z,29.40
2022-09-05T12:04:03.697Z,29.47
2022-09-05T12:05:48.409Z,28.21
2022-09-05T12:07:30.033Z,27.16
2022-09-05T12:09:03.292Z,27.14
2022-09-05T12:10:09.873Z,27.25
2022-09-05T12:12:39.529Z,27.00
2022-09-05T12:13:54.817Z,26.39
2022-09-05T12:15:22.234Z,26.64
2022-09-05T12:16:36.189Z,27.56
2022-09-05T12:18:04.315Z,27.75
2022-09-05T12:19:49.026Z,27.77
2022-09-05T12:21:20.715Z,27.32
2022-09-05T12:22:59.062Z,26.92
2022-09-05T12:24:54.966Z,26.33
2022-09-05T12:27:40.841Z,26.19
2022-09-05T12:27:45.034Z,26.48
2022-09-05T12:29:26.867Z,26.09
2022-09-05T12:30:15.298Z,26.69
2022-09-05T12:32:59.455Z,26.18
2022-09-05T12:36:04.817Z,26.28
2022-09-05T12:36:06.371Z,26.06
2022-09-05T12:39:40.315Z,26.87
2022-09-05T12:40:58.479Z,28.02
2022-09-05T12:41:38.189Z,28.54
2022-09-05T12:41:45.178Z,28.52
2022-09-05T12:44:38.704Z,28.21
2022-09-05T12:45:08.969Z,27.58
2022-09-05T12:46:27.277Z,28.97
2022-09-05T12:47:30.453Z,28.91
2022-09-05T12:48:42.810Z,28.79
2022-09-05T12:50:02.774Z,27.68
2022-09-05T12:51:08.625Z,27.44
2022-09-05T12:52:14.324Z,26.43
2022-09-05T12:53:21.050Z,27.27
2022-09-05T12:54:34.688Z,26.98
2022-09-05T12:55:52.110Z,27.73
2022-09-05T13:02:27.835Z,28.59
2022-09-05T13:03:02.514Z,28.03
2022-09-05T13:03:03.137Z,28.57
2022-09-05T13:03:04.085Z,27.66
2022-09-05T13:03:37.916Z,28.71
2022-09-05T13:05:01.813Z,28.01
2022-09-05T13:06:24.711Z,27.93
2022-09-05T13:07:57.038Z,27.88
2022-09-05T13:09:08.611Z,27.17
2022-09-05T13:11:10.078Z,27.33
2022-09-05T13:14:48.703Z,27.98
2022-09-05T13:14:56.949Z,28.65
2022-09-05T13:15:11.411Z,29.50
2022-09-05T13:16:23.644Z,29.71
2022-09-05T13:17:43.084Z,29.56
2022-09-05T13:18:47.989Z,30.63
2022-09-05T13:19:51.832Z,30.80
2022-09-05T13:21:27.167Z,29.61
2022-09-05T13:22:30.082Z,30.50
2022-09-05T13:23:50.452Z,30.79
2022-09-05T13:25:04.772Z,30.32
2022-09-05T13:26:23.732Z,31.31
2022-09-05T13:27:34.550Z,31.37
2022-09-05T13:28:57.172Z,30.98
2022-09-05T13:32:03.883Z,30.05
2022-09-05T13:37:54.159Z,30.34
2022-09-05T13:38:02.656Z,30.33
2022-09-05T13:38:05.479Z,30.83
2022-09-05T13:38:11.032Z,30.14
2022-09-05T13:38:19.753Z,30.04
2022-09-05T13:39:12.957Z,30.92
2022-09-05T13:40:20.205Z,31.91
2022-09-05T13:41:29.099Z,32.13
2022-09-05T13:42:38.595Z,31.58
2022-09-05T13:43:44.977Z,30.92
2022-09-05T13:44:53.820Z,30.82
2022-09-05T13:46:09.592Z,30.05
2022-09-05T13:47:30.142Z,29.82
2022-09-05T13:50:33.249Z,29.49
2022-09-05T13:51:43.836Z,29.50
2022-09-05T13:52:55.138Z,29.16
2022-09-05T13:54:03.574Z,29.10
2022-09-05T13:55:41.839Z,29.73
2022-09-05T13:57:01.352Z,31.03
2022-09-05T13:58:12.072Z,31.64
2022-09-05T13:59:16.177Z,31.71
2022-09-05T14:00:28.857Z,31.63
2022-09-05T14:02:26.275Z,31.14
2022-09-05T14:03:38.606Z,31.57
2022-09-05T14:05:10.904Z,31.61
2022-09-05T14:06:48.617Z,31.85
2022-09-05T14:08:16.794Z,31.18
2022-09-05T14:09:50.009Z,31.43
2022-09-05T14:11:45.115Z,31.11
2022-09-05T14:13:02.543Z,31.74
2022-09-05T14:15:59.449Z,31.64
2022-09-05T14:18:54.384Z,31.82
2022-09-05T14:20:16.934Z,32.23
2022-09-05T14:21:19.611Z,31.95
2022-09-05T14:22:44.929Z,32.11
2022-09-05T14:24:04.625Z,32.51
2022-09-05T14:25:20.258Z,32.13
2022-09-05T14:26:25.423Z,31.53
2022-09-05T14:27:31.977Z,32.07
2022-09-05T14:28:46.628Z,31.51
2022-09-05T14:29:55.276Z,31.24
2022-09-05T14:34:47.755Z,31.51
2022-09-05T14:37:41.622Z,30.51
2022-09-05T14:37:41.990Z,32.19
2022-09-05T14:37:52.109Z,30.89
2022-09-05T14:38:25.724Z,31.33
2022-09-05T14:39:41.981Z,30.97
2022-09-05T14:41:09.112Z,30.84
2022-09-05T14:42:31.358Z,31.33
2022-09-05T14:43:39.810Z,31.33
2022-09-05T14:45:03.333Z,30.60
2022-09-05T14:46:33.388Z,30.29
2022-09-05T14:47:59.839Z,30.17
2022-09-05T14:49:40.528Z,30.46
2022-09-05T14:50:54.585Z,31.16
2022-09-05T14:51:58.429Z,31.19
2022-09-05T14:57:59.109Z,31.42
2022-09-05T15:02:42.400Z,31.04
2022-09-05T15:02:42.654Z,31.51
2022-09-05T15:02:48.693Z,31.02
2022-09-05T15:02:54.611Z,32.33
2022-09-05T15:05:13.590Z,32.89
2022-09-05T15:06:21.291Z,33.11
2022-09-05T15:07:37.968Z,32.73
2022-09-05T15:11:01.922Z,32.73
2022-09-05T15:12:19.691Z,32.71
2022-09-05T15:12:20.064Z,34.04
2022-09-05T15:13:10.392Z,34.49
2022-09-05T15:14:13.397Z,34.46
2022-09-05T15:15:39.276Z,34.43
2022-09-05T15:16:57.871Z,35.41
2022-09-05T15:18:09.666Z,35.75
2022-09-05T15:19:33.151Z,36.16
2022-09-05T15:20:45.008Z,36.75
2022-09-05T15:21:47.333Z,36.28
2022-09-05T15:22:56.403Z,36.78
2022-09-05T15:24:04.215Z,36.75
2022-09-05T15:25:17.556Z,37.05
2022-09-05T15:26:25.622Z,37.61
2022-09-05T15:27:29.632Z,37.65
2022-09-05T15:28:38.639Z,37.86
2022-09-05T15:29:41.824Z,37.61
2022-09-05T15:30:55.845Z,37.40
2022-09-05T15:32:14.874Z,37.43
2022-09-05T15:33:25.463Z,37.81
2022-09-05T15:34:33.285Z,38.63
2022-09-05T15:35:38.508Z,38.61
2022-09-05T15:36:40.861Z,38.41
2022-09-05T15:37:44.936Z,38.79
2022-09-05T15:38:55.866Z,39.56
2022-09-05T15:40:23.711Z,39.52
2022-09-05T15:41:28.989Z,38.72
2022-09-05T15:42:38.024Z,38.24
2022-09-05T15:44:00.583Z,38.16
2022-09-05T15:45:10.040Z,38.72
2022-09-05T15:46:13.671Z,38.38
2022-09-05T15:47:23.864Z,37.99
2022-09-05T15:48:26.538Z,37.99
2022-09-05T15:49:53.766Z,38.50
2022-09-05T15:50:58.790Z,39.04
2022-09-05T15:52:29.128Z,38.22
2022-09-05T15:53:38.045Z,38.17
2022-09-05T15:54:53.483Z,38.18
2022-09-05T15:56:14.240Z,38.27
2022-09-05T15:57:21.157Z,38.41
2022-09-05T15:58:23.468Z,37.77
2022-09-05T15:59:34.322Z,38.48
2022-09-05T16:00:41.690Z,38.30
2022-09-05T16:01:59.662Z,38.30
2022-09-05T16:04:49.890Z,38.15
2022-09-05T16:10:28.505Z,38.28
2022-09-05T16:10:37.063Z,37.61
2022-09-05T16:10:37.542Z,37.69
2022-09-05T16:10:42.216Z,38.13
2022-09-05T16:10:58.052Z,38.38
2022-09-05T16:13:14.914Z,38.09
2022-09-05T16:14:17.135Z,38.37
2022-09-05T16:19:29.382Z,38.16
2022-09-05T16:23:14.636Z,38.27
2022-09-05T16:23:14.854Z,37.59
2022-09-05T16:23:28.260Z,38.36
2022-09-05T16:23:29.521Z,38.29
2022-09-05T16:23:33.137Z,38.26
2022-09-05T16:24:38.670Z,37.66
2022-09-05T16:26:08.707Z,38.38
2022-09-05T16:27:18.057Z,38.53
2022-09-05T16:28:26.235Z,38.04
2022-09-05T16:29:32.705Z,38.39
2022-09-05T16:30:39.704Z,38.41
2022-09-05T16:31:52.750Z,38.68
2022-09-05T16:33:04.233Z,38.17
2022-09-05T16:34:13.502Z,39.71
2022-09-05T16:35:18.155Z,39.11
2022-09-05T16:36:32.736Z,39.18
2022-09-05T16:37:54.690Z,39.47
2022-09-05T16:39:01.828Z,39.36
2022-09-05T16:40:25.434Z,40.36
2022-09-05T16:41:55.740Z,39.63
2022-09-05T16:43:08.451Z,40.50
2022-09-05T16:44:32.096Z,40.29
2022-09-05T16:46:08.707Z,40.63
2022-09-05T16:47:27.488Z,40.66
2022-09-05T16:48:38.755Z,41.09
2022-09-05T16:49:57.331Z,41.67
2022-09-05T16:51:04.159Z,41.88
2022-09-05T16:52:22.469Z,42.00
2022-09-05T16:53:38.047Z,41.86
2022-09-05T16:55:05.909Z,41.47
2022-09-05T16:56:12.171Z,41.94
2022-09-05T16:57:31.480Z,41.61
2022-09-05T16:58:39.747Z,41.98
2022-09-05T16:59:45.215Z,42.33
2022-09-05T17:01:11.289Z,41.91
2022-09-05T17:02:32.953Z,41.56
2022-09-05T17:03:43.369Z,41.76
2022-09-05T17:05:03.496Z,42.41
2022-09-05T17:06:17.845Z,42.36
2022-09-05T17:07:31.375Z,42.50
2022-09-05T17:08:35.691Z,43.22
2022-09-05T17:09:43.186Z,43.04
2022-09-05T17:10:55.877Z,43.22
2022-09-05T17:12:06.822Z,43.34
2022-09-05T17:13:16.683Z,43.19
2022-09-05T17:14:21.509Z,43.25
2022-09-05T17:18:18.468Z,43.35
2022-09-05T17:18:56.463Z,43.89
2022-09-05T17:20:07.213Z,43.99
2022-09-05T17:21:18.803Z,44.61
2022-09-05T17:25:40.136Z,45.67
2022-09-05T17:29:20.924Z,45.10
2022-09-05T17:29:25.248Z,45.67
2022-09-05T17:29:32.749Z,46.01
2022-09-05T17:29:50.488Z,45.59
2022-09-05T17:31:46.125Z,45.67
2022-09-05T17:32:39.358Z,46.86
2022-09-05T17:33:45.539Z,47.14
2022-09-05T17:35:17.074Z,47.42
2022-09-05T17:36:41.158Z,47.15
2022-09-05T17:38:11.441Z,47.07
2022-09-05T17:39:49.064Z,47.29
2022-09-05T17:41:16.140Z,47.56
2022-09-05T17:42:34.387Z,47.74
2022-09-05T17:43:42.193Z,48.08
2022-09-05T17:45:10.689Z,49.08
2022-09-05T17:46:26.488Z,48.83
2022-09-05T17:47:44.347Z,48.86
2022-09-05T17:49:03.311Z,48.79
2022-09-05T17:50:15.037Z,48.97
2022-09-05T17:51:26.702Z,48.77
2022-09-05T17:52:29.031Z,50.20
2022-09-05T17:53:33.413Z,49.45
2022-09-05T17:54:37.421Z,49.97
2022-09-05T17:55:52.836Z,49.85
2022-09-05T17:56:55.083Z,49.35
2022-09-05T17:58:21.252Z,49.68
2022-09-05T17:59:28.486Z,49.88
2022-09-05T18:00:43.719Z,50.24
2022-09-05T18:02:04.444Z,50.34
2022-09-05T18:03:06.668Z,50.57
2022-09-05T18:04:17.024Z,50.80
2022-09-05T18:05:54.959Z,49.62